Time;durP1;ratioP1;P1;durP2;ratioP2;P2;SDS_P1;SDS_P2;PMS_P1;PMS_P2;Temp;Humidity;BMP_temperature;BMP_pressure;BME280_temperature;BME280_humidity;BME280_pressure;Samples;Min_cycle;Max_cycle;Signal;HPM_P1;HPM_P2
2024/02/24 00:00:07;;;;;;;2.47;0.20;;;;;;;8.16;100.00;99286.63;5087337;28;20452;-65
2024/02/24 00:02:32;;;;;;;7.63;0.20;;;;;;;8.15;100.00;99295.38;5086786;28;20540;-65
2024/02/24 00:04:57;;;;;;;0.70;0.20;;;;;;;8.14;100.00;99304.16;5088483;28;20126;-66
2024/02/24 00:07:23;;;;;;;0.38;0.10;;;;;;;8.14;100.00;99314.53;5087251;28;20448;-66
2024/02/24 00:09:48;;;;;;;3.83;0.10;;;;;;;8.15;100.00;99317.94;5086129;28;20052;-66
2024/02/24 00:12:14;;;;;;;0.90;0.10;;;;;;;8.16;100.00;99324.75;5083495;28;20472;-66
2024/02/24 00:14:39;;;;;;;0.08;0.00;;;;;;;8.15;100.00;99328.31;5076519;28;20114;-66
2024/02/24 00:17:05;;;;;;;1.38;0.10;;;;;;;8.14;100.00;99339.66;5081461;28;20033;-66
2024/02/24 00:19:30;;;;;;;0.52;0.10;;;;;;;8.13;100.00;99341.44;5078529;28;20047;-66
2024/02/24 00:21:57;;;;;;;1.65;0.10;;;;;;;8.12;100.00;99349.38;5085498;28;20032;-66
2024/02/24 00:24:22;;;;;;;0.35;0.10;;;;;;;8.11;100.00;99353.75;5077895;28;20456;-66
2024/02/24 00:26:47;;;;;;;0.38;0.10;;;;;;;8.10;100.00;99365.09;5086839;28;20028;-66
2024/02/24 00:29:13;;;;;;;2.40;0.10;;;;;;;8.07;100.00;99360.22;5088807;28;20485;-66
2024/02/24 00:31:38;;;;;;;0.73;0.10;;;;;;;8.05;100.00;99356.16;5083788;28;20045;-66
2024/02/24 00:34:04;;;;;;;3.17;0.10;;;;;;;8.04;100.00;99359.72;5080355;28;20039;-66
2024/02/24 00:36:29;;;;;;;0.50;0.20;;;;;;;8.03;100.00;99366.72;5080508;28;20409;-66
2024/02/24 00:38:55;;;;;;;1.02;0.20;;;;;;;8.02;100.00;99356.47;5080382;28;20020;-66
2024/02/24 00:41:20;;;;;;;0.98;0.10;;;;;;;7.99;100.00;99347.22;5079904;28;20032;-66
2024/02/24 00:43:46;;;;;;;2.13;0.15;;;;;;;7.95;100.00;99349.31;5079798;28;20039;-66
2024/02/24 00:46:11;;;;;;;2.53;0.10;;;;;;;7.95;100.00;99344.13;5089569;28;20031;-66
2024/02/24 00:48:36;;;;;;;0.10;0.00;;;;;;;7.97;100.00;99349.16;5091043;28;20032;-66
2024/02/24 00:51:02;;;;;;;2.50;0.20;;;;;;;7.96;100.00;99344.94;5091201;28;20020;-66
2024/02/24 00:53:28;;;;;;;2.40;0.20;;;;;;;7.98;100.00;99348.19;5089100;28;20032;-66
2024/02/24 00:55:53;;;;;;;4.45;0.10;;;;;;;8.01;100.00;99345.28;5085716;28;20062;-66
2024/02/24 00:58:18;;;;;;;0.20;0.10;;;;;;;8.01;100.00;99347.88;5092116;28;20027;-66
2024/02/24 01:00:44;;;;;;;0.45;0.10;;;;;;;7.99;100.00;99350.63;5090080;28;20040;-66
2024/02/24 01:03:09;;;;;;;0.25;0.00;;;;;;;7.97;100.00;99351.75;5089334;28;20024;-66
2024/02/24 01:05:35;;;;;;;1.10;0.10;;;;;;;7.97;100.00;99346.56;5088637;28;20035;-66
2024/02/24 01:08:00;;;;;;;0.35;0.05;;;;;;;7.94;100.00;99347.69;5082452;28;20031;-66
2024/02/24 01:10:26;;;;;;;1.35;0.20;;;;;;;7.94;100.00;99346.88;5086924;28;20032;-66
2024/02/24 01:12:51;;;;;;;5.10;0.10;;;;;;;7.89;100.00;99346.53;5088505;28;20044;-66
2024/02/24 01:15:17;;;;;;;0.22;0.00;;;;;;;7.85;100.00;99342.63;5091082;28;20402;-66
2024/02/24 01:17:43;;;;;;;7.20;0.13;;;;;;;7.86;100.00;99346.84;5090210;28;20074;-66
2024/02/24 01:20:09;;;;;;;1.13;0.10;;;;;;;7.83;100.00;99341.94;5085655;28;20028;-66
2024/02/24 01:22:34;;;;;;;3.10;0.10;;;;;;;7.82;100.00;99343.72;5091241;28;20028;-66
2024/02/24 01:25:00;;;;;;;2.75;0.25;;;;;;;7.84;100.00;99353.94;5089825;28;20027;-66
2024/02/24 01:27:25;;;;;;;5.15;0.00;;;;;;;7.83;100.00;99358.31;5089600;28;20055;-66
2024/02/24 01:29:50;;;;;;;0.40;0.10;;;;;;;7.85;100.00;99366.75;5084857;28;20024;-66
2024/02/24 01:32:16;;;;;;;5.32;0.10;;;;;;;7.83;100.00;99373.06;5085175;28;20046;-66
2024/02/24 01:34:41;;;;;;;0.82;0.00;;;;;;;7.79;100.00;99375.16;5085664;28;20032;-66
2024/02/24 01:37:07;;;;;;;0.20;0.00;;;;;;;7.78;100.00;99383.91;5087073;28;20089;-66
2024/02/24 01:39:32;;;;;;;0.43;0.00;;;;;;;7.77;100.00;99384.88;5083270;28;20040;-66
2024/02/24 01:41:58;;;;;;;0.10;0.00;;;;;;;7.79;100.00;99392.50;5088503;28;20020;-66
2024/02/24 01:44:23;;;;;;;0.55;0.00;;;;;;;7.79;100.00;99382.94;5083354;28;20098;-66
2024/02/24 01:46:49;;;;;;;5.53;0.17;;;;;;;7.76;100.00;99387.59;5090703;28;20032;-66
2024/02/24 01:49:15;;;;;;;0.25;0.00;;;;;;;7.73;100.00;99385.31;5085321;28;20036;-66
2024/02/24 01:51:45;;;;;;;2.88;0.10;;;;;;;7.72;100.00;99391.47;5089541;28;20058;-66
2024/02/24 01:54:11;;;;;;;6.10;0.10;;;;;;;7.70;100.00;99393.41;5088009;28;20040;-66
2024/02/24 01:56:43;;;;;;;4.13;0.10;;;;;;;7.68;100.00;99396.16;5086667;28;20063;-66
2024/02/24 01:59:10;;;;;;;0.20;0.00;;;;;;;7.67;100.00;99404.88;5089570;28;20031;-66
2024/02/24 02:01:36;;;;;;;0.98;0.00;;;;;;;7.67;100.00;99402.28;5087732;28;20029;-66
2024/02/24 02:04:01;;;;;;;0.20;0.00;;;;;;;7.63;100.00;99403.56;5090454;28;20036;-67
2024/02/24 02:06:31;;;;;;;2.22;0.10;;;;;;;7.65;100.00;99410.22;5087178;28;20027;-67
2024/02/24 02:08:56;;;;;;;0.55;0.00;;;;;;;7.68;100.00;99413.47;5089726;28;20035;-67
2024/02/24 02:11:22;;;;;;;1.27;0.10;;;;;;;7.66;100.00;99414.44;5087431;28;20028;-66
2024/02/24 02:13:47;;;;;;;4.68;0.20;;;;;;;7.66;100.00;99419.63;5085830;28;20133;-66
2024/02/24 02:16:13;;;;;;;5.53;0.00;;;;;;;7.66;100.00;99419.63;5088300;28;20046;-66
2024/02/24 02:18:38;;;;;;;3.38;0.10;;;;;;;7.62;100.00;99426.06;5084336;28;20082;-66
2024/02/24 02:21:05;;;;;;;0.45;0.10;;;;;;;7.63;100.00;99427.69;5080005;28;20032;-66
2024/02/24 02:23:30;;;;;;;1.85;0.00;;;;;;;7.65;100.00;99432.75;5084257;28;20036;-66
2024/02/24 02:25:56;;;;;;;0.32;0.00;;;;;;;7.60;100.00;99440.16;5086797;28;20034;-66
2024/02/24 02:28:22;;;;;;;2.60;0.00;;;;;;;7.53;100.00;99439.97;5088981;28;20023;-66
2024/02/24 02:30:47;;;;;;;0.57;0.00;;;;;;;7.50;100.00;99439.44;5083381;28;20089;-67
2024/02/24 02:33:13;;;;;;;2.55;0.10;;;;;;;7.44;100.00;99435.66;5085442;28;20027;-67
2024/02/24 02:35:38;;;;;;;1.35;0.10;;;;;;;7.38;100.00;99435.44;5086655;28;20040;-67
2024/02/24 02:38:07;;;;;;;2.90;0.10;;;;;;;7.37;100.00;99434.63;5085909;28;20038;-67
2024/02/24 02:40:33;;;;;;;1.13;0.10;;;;;;;7.31;100.00;99438.63;5083563;28;20388;-67
2024/02/24 02:42:59;;;;;;;1.83;0.10;;;;;;;7.33;100.00;99439.31;5085855;28;20371;-67
2024/02/24 02:45:24;;;;;;;1.85;0.08;;;;;;;7.34;100.00;99447.88;5086935;28;20028;-67
2024/02/24 02:47:50;;;;;;;1.38;0.20;;;;;;;7.27;100.00;99450.25;5087077;28;20031;-67
2024/02/24 02:50:16;;;;;;;5.55;0.10;;;;;;;7.21;100.00;99450.03;5086916;28;20035;-66
2024/02/24 02:52:41;;;;;;;0.60;0.10;;;;;;;7.13;100.00;99449.94;5089927;28;20028;-66
2024/02/24 02:55:07;;;;;;;1.88;0.10;;;;;;;7.11;100.00;99454.44;5087912;28;20463;-66
2024/02/24 02:57:32;;;;;;;1.20;0.20;;;;;;;7.08;100.00;99457.38;5080823;28;20063;-66
2024/02/24 02:59:58;;;;;;;4.40;0.22;;;;;;;7.01;100.00;99458.91;5089960;28;20150;-66
2024/02/24 03:02:23;;;;;;;1.27;0.10;;;;;;;6.98;100.00;99468.59;5087289;28;20028;-66
2024/02/24 03:04:49;;;;;;;3.42;0.10;;;;;;;7.01;100.00;99477.03;5086615;28;20043;-66
2024/02/24 03:07:14;;;;;;;6.38;0.20;;;;;;;7.04;100.00;99469.78;5088776;28;20028;-66
2024/02/24 03:09:44;;;;;;;1.85;0.10;;;;;;;7.09;100.00;99477.13;5087792;28;20028;-66
2024/02/24 03:12:10;;;;;;;4.55;0.10;;;;;;;7.13;100.00;99486.22;5087556;28;20028;-66
2024/02/24 03:14:35;;;;;;;2.08;0.10;;;;;;;7.16;100.00;99488.50;5087894;28;20048;-66
2024/02/24 03:17:01;;;;;;;7.25;0.15;;;;;;;7.18;100.00;99484.00;5088318;28;20047;-66
2024/02/24 03:19:26;;;;;;;2.78;0.10;;;;;;;7.20;100.00;99490.66;5088756;28;20032;-66
2024/02/24 03:21:51;;;;;;;6.13;0.20;;;;;;;7.22;100.00;99488.75;5089450;28;20509;-66
2024/02/24 03:24:17;;;;;;;0.80;0.10;;;;;;;7.23;100.00;99494.72;5089971;28;20463;-66
2024/02/24 03:26:42;;;;;;;1.17;0.10;;;;;;;7.26;100.00;99497.03;5085150;28;20024;-66
2024/02/24 03:29:08;;;;;;;4.88;0.10;;;;;;;7.30;100.00;99500.97;5083424;28;20036;-66
2024/02/24 03:31:33;;;;;;;1.08;0.10;;;;;;;7.35;100.00;99497.94;5085479;28;20089;-67
2024/02/24 03:33:59;;;;;;;2.65;0.20;;;;;;;7.38;100.00;99506.22;5083377;28;20031;-67
2024/02/24 03:36:24;;;;;;;0.60;0.10;;;;;;;7.40;100.00;99496.53;5084121;28;20115;-67
2024/02/24 03:38:50;;;;;;;4.00;0.10;;;;;;;7.39;100.00;99513.03;5087377;28;20071;-67
2024/02/24 03:41:15;;;;;;;3.90;0.10;;;;;;;7.39;100.00;99523.41;5086032;28;20028;-67
2024/02/24 03:43:41;;;;;;;0.40;0.20;;;;;;;7.38;100.00;99514.00;5087444;28;20096;-67
2024/02/24 03:46:06;;;;;;;4.82;0.20;;;;;;;7.31;100.00;99518.97;5087432;28;20020;-66
2024/02/24 03:48:33;;;;;;;1.88;0.00;;;;;;;7.27;100.00;99527.16;5087270;28;20036;-66
2024/02/24 03:51:00;;;;;;;4.97;0.17;;;;;;;7.23;100.00;99533.59;5087155;28;20024;-66
2024/02/24 03:53:26;;;;;;;1.38;0.10;;;;;;;7.23;100.00;99542.19;5088198;28;20391;-67
2024/02/24 03:55:52;;;;;;;4.93;0.08;;;;;;;7.23;100.00;99538.78;5082729;28;20055;-67
2024/02/24 03:58:18;;;;;;;0.93;0.10;;;;;;;7.21;100.00;99549.28;5088210;28;20700;-66
2024/02/24 04:00:44;;;;;;;1.27;0.20;;;;;;;7.21;100.00;99549.28;5083102;28;20024;-66
2024/02/24 04:03:10;;;;;;;1.10;0.10;;;;;;;7.24;100.00;99555.97;5080966;28;20415;-66
2024/02/24 04:05:36;;;;;;;0.93;0.08;;;;;;;7.25;100.00;99560.19;5085211;28;20415;-67
2024/02/24 04:08:03;;;;;;;6.30;0.10;;;;;;;7.22;100.00;99563.06;5082394;28;20035;-67
2024/02/24 04:10:29;;;;;;;5.80;0.13;;;;;;;7.19;100.00;99558.16;5085114;28;20032;-67
2024/02/24 04:12:55;;;;;;;3.75;0.17;;;;;;;7.14;100.00;99568.97;5081950;28;20039;-67
2024/02/24 04:15:21;;;;;;;3.72;0.20;;;;;;;7.17;100.00;99565.25;5080936;28;20037;-67
2024/02/24 04:17:47;;;;;;;2.55;0.10;;;;;;;7.15;100.00;99569.78;5080545;28;20061;-67
2024/02/24 04:20:14;;;;;;;2.90;0.20;;;;;;;7.14;100.00;99562.97;5081031;28;20028;-67
2024/02/24 04:22:40;;;;;;;2.75;0.47;;;;;;;7.16;100.00;99574.00;5082799;28;20359;-67
2024/02/24 04:25:06;;;;;;;3.35;0.10;;;;;;;7.17;100.00;99573.84;5083567;28;20020;-67
2024/02/24 04:27:31;;;;;;;3.00;0.20;;;;;;;7.18;100.00;99578.06;5082247;28;20041;-67
2024/02/24 04:29:57;;;;;;;2.95;0.35;;;;;;;7.18;100.00;99575.47;5083017;28;20023;-67
2024/02/24 04:32:22;;;;;;;3.25;0.08;;;;;;;7.18;100.00;99578.06;5081525;28;20028;-67
2024/02/24 04:34:48;;;;;;;5.55;0.20;;;;;;;7.16;100.00;99587.75;5081027;28;20089;-66
2024/02/24 04:37:13;;;;;;;6.40;0.30;;;;;;;7.12;100.00;99591.59;5081757;28;20024;-66
2024/02/24 04:39:39;;;;;;;2.15;0.20;;;;;;;7.15;100.00;99600.84;5080296;28;20544;-66
2024/02/24 04:42:04;;;;;;;1.65;0.20;;;;;;;7.22;100.00;99601.91;5083599;28;20097;-66
2024/02/24 04:44:30;;;;;;;3.45;0.20;;;;;;;7.26;100.00;99598.09;5079574;28;20037;-66
2024/02/24 04:46:56;;;;;;;7.32;0.20;;;;;;;7.28;100.00;99596.97;5079701;28;20035;-67
2024/02/24 04:49:21;;;;;;;1.08;0.10;;;;;;;7.28;100.00;99601.34;5079527;28;20054;-67
2024/02/24 04:51:47;;;;;;;4.45;0.38;;;;;;;7.26;100.00;99608.44;5080235;28;20044;-67
2024/02/24 04:54:13;;;;;;;7.30;0.20;;;;;;;7.21;100.00;99608.06;5082997;28;20024;-66
2024/02/24 04:56:39;;;;;;;4.47;0.20;;;;;;;7.21;100.00;99605.47;5082487;28;20059;-67
2024/02/24 04:59:04;;;;;;;1.95;0.10;;;;;;;7.25;100.00;99617.19;5090098;28;20455;-67
2024/02/24 05:01:30;;;;;;;3.25;0.22;;;;;;;7.22;100.00;99614.88;5082820;28;20036;-67
2024/02/24 05:03:55;;;;;;;3.35;0.10;;;;;;;7.24;100.00;99618.13;5082639;28;20024;-67
2024/02/24 05:06:21;;;;;;;6.07;0.13;;;;;;;7.24;100.00;99616.34;5084997;28;20138;-67
2024/02/24 05:08:46;;;;;;;1.40;0.10;;;;;;;7.26;100.00;99614.44;5084530;28;20032;-67
2024/02/24 05:11:13;;;;;;;2.55;0.10;;;;;;;7.29;100.00;99621.13;5082068;28;20020;-67
2024/02/24 05:13:39;;;;;;;7.97;0.20;;;;;;;7.31;100.00;99621.78;5086303;28;20060;-67
2024/02/24 05:16:05;;;;;;;2.60;0.10;;;;;;;7.34;100.00;99624.09;5089128;28;20455;-67
2024/02/24 05:18:30;;;;;;;6.25;0.30;;;;;;;7.32;100.00;99628.59;5085794;28;20059;-67
2024/02/24 05:20:58;;;;;;;3.55;0.30;;;;;;;7.33;100.00;99635.41;5087650;28;20560;-67
2024/02/24 05:23:23;;;;;;;1.17;0.10;;;;;;;7.33;100.00;99640.59;5088626;28;20074;-67
2024/02/24 05:25:49;;;;;;;3.80;0.20;;;;;;;7.32;100.00;99647.56;5082006;28;20396;-67
2024/02/24 05:28:14;;;;;;;2.40;0.10;;;;;;;7.33;100.00;99651.78;5087184;28;20032;-67
2024/02/24 05:30:39;;;;;;;5.40;0.17;;;;;;;7.34;100.00;99662.97;5088520;28;20149;-67
2024/02/24 05:33:05;;;;;;;8.35;0.80;;;;;;;7.33;100.00;99658.75;5091594;28;20024;-67
2024/02/24 05:35:30;;;;;;;10.73;0.30;;;;;;;7.37;100.00;99665.28;5091047;28;20404;-67
2024/02/24 05:37:56;;;;;;;2.17;0.10;;;;;;;7.42;100.00;99665.66;5091818;28;20031;-67
2024/02/24 05:40:22;;;;;;;3.40;0.20;;;;;;;7.44;100.00;99670.69;5091597;28;20364;-67
2024/02/24 05:42:47;;;;;;;4.55;0.20;;;;;;;7.44;100.00;99681.88;5091059;28;20097;-67
2024/02/24 05:45:13;;;;;;;2.15;0.35;;;;;;;7.42;100.00;99676.03;5092298;28;20032;-67
2024/02/24 05:47:38;;;;;;;7.28;0.22;;;;;;;7.40;100.00;99677.94;5090003;28;20043;-67
2024/02/24 05:50:04;;;;;;;6.50;0.40;;;;;;;7.36;100.00;99681.78;5092155;28;20433;-67
2024/02/24 05:52:30;;;;;;;2.75;0.15;;;;;;;7.34;100.00;99686.28;5091166;28;20075;-67
2024/02/24 05:54:55;;;;;;;5.78;0.10;;;;;;;7.33;100.00;99692.44;5092222;28;20409;-67
2024/02/24 05:57:20;;;;;;;4.18;0.20;;;;;;;7.38;100.00;99692.81;5092319;28;20034;-67
2024/02/24 05:59:46;;;;;;;6.00;0.20;;;;;;;7.40;100.00;99690.91;5091173;28;20032;-67
2024/02/24 06:02:11;;;;;;;10.20;0.30;;;;;;;7.43;100.00;99698.41;5091330;28;20024;-67
2024/02/24 06:04:38;;;;;;;5.78;0.30;;;;;;;7.47;100.00;99704.09;5087581;28;20031;-67
2024/02/24 06:07:04;;;;;;;8.60;0.50;;;;;;;7.46;100.00;99702.47;5094087;28;20101;-67
2024/02/24 06:09:29;;;;;;;12.48;0.40;;;;;;;7.41;100.00;99702.91;5087031;28;20049;-67
2024/02/24 06:11:55;;;;;;;7.93;0.25;;;;;;;7.40;100.00;99703.84;5087787;28;20510;-67
2024/02/24 06:14:20;;;;;;;2.85;0.10;;;;;;;7.39;100.00;99720.38;5087823;28;20054;-67
2024/02/24 06:16:46;;;;;;;3.90;0.30;;;;;;;7.36;100.00;99712.06;5085550;28;20548;-66
2024/02/24 06:19:11;;;;;;;6.72;0.20;;;;;;;7.35;100.00;99715.59;5087263;28;20032;-66
2024/02/24 06:21:37;;;;;;;7.32;0.20;;;;;;;7.33;100.00;99720.94;5086235;28;21092;-66
2024/02/24 06:24:02;;;;;;;11.05;0.43;;;;;;;7.32;100.00;99721.88;5091535;28;20829;-66
2024/02/24 06:26:28;;;;;;;3.42;0.20;;;;;;;7.33;100.00;99729.53;5080448;28;20025;-67
2024/02/24 06:28:55;;;;;;;1.85;0.30;;;;;;;7.33;100.00;99731.28;5077851;28;20027;-67
2024/02/24 06:31:21;;;;;;;8.88;0.50;;;;;;;7.35;100.00;99736.34;5080319;28;20032;-67
2024/02/24 06:33:46;;;;;;;5.70;0.40;;;;;;;7.36;100.00;99743.16;5081598;28;20085;-66
2024/02/24 06:36:12;;;;;;;1.58;0.17;;;;;;;7.38;100.00;99751.59;5074369;28;20032;-66
2024/02/24 06:38:37;;;;;;;2.60;0.10;;;;;;;7.39;100.00;99748.88;5086694;28;20041;-66
2024/02/24 06:41:03;;;;;;;3.30;0.13;;;;;;;7.42;100.00;99763.31;5084869;28;20115;-66
2024/02/24 06:43:28;;;;;;;4.45;0.30;;;;;;;7.44;100.00;99766.59;5083733;28;20066;-66
2024/02/24 06:45:54;;;;;;;1.05;0.10;;;;;;;7.42;100.00;99769.31;5083073;28;20024;-66
2024/02/24 06:48:20;;;;;;;3.00;0.30;;;;;;;7.38;100.00;99777.53;5087406;28;20028;-66
2024/02/24 06:50:45;;;;;;;11.02;0.30;;;;;;;7.37;100.00;99775.88;5092212;28;20036;-66
2024/02/24 06:53:11;;;;;;;2.10;0.00;;;;;;;7.41;100.00;99788.44;5088029;28;21489;-66
2024/02/24 06:55:36;;;;;;;6.70;0.20;;;;;;;7.48;100.00;99788.69;5092672;28;20035;-66
2024/02/24 06:58:02;;;;;;;5.75;0.10;;;;;;;7.53;100.00;99786.50;5090389;28;20149;-67
2024/02/24 07:00:28;;;;;;;5.70;0.30;;;;;;;7.58;100.00;99799.81;5086046;28;20021;-67
2024/02/24 07:02:54;;;;;;;4.45;0.13;;;;;;;7.68;100.00;99799.78;5080966;28;20036;-66
2024/02/24 07:05:20;;;;;;;7.45;0.25;;;;;;;7.70;100.00;99797.88;5079756;28;20024;-66
2024/02/24 07:07:45;;;;;;;4.15;0.20;;;;;;;7.65;100.00;99801.69;5083328;28;20034;-66
2024/02/24 07:10:11;;;;;;;3.22;0.20;;;;;;;7.65;100.00;99800.88;5081344;28;20036;-66
2024/02/24 07:12:36;;;;;;;2.97;0.20;;;;;;;7.71;100.00;99799.50;5083026;28;20028;-66
2024/02/24 07:15:02;;;;;;;4.32;0.30;;;;;;;7.69;100.00;99807.44;5083512;28;20043;-66
2024/02/24 07:17:28;;;;;;;2.53;0.20;;;;;;;7.66;100.00;99805.94;5083000;28;20033;-66
2024/02/24 07:19:54;;;;;;;3.38;0.22;;;;;;;7.64;100.00;99815.63;5076656;28;20042;-66
2024/02/24 07:22:20;;;;;;;2.08;0.30;;;;;;;7.61;100.00;99815.91;5085618;28;20383;-66
2024/02/24 07:24:46;;;;;;;9.23;0.30;;;;;;;7.62;100.00;99817.53;5084193;28;20036;-66
2024/02/24 07:27:11;;;;;;;4.80;0.17;;;;;;;7.70;100.00;99818.63;5084492;28;20032;-66
2024/02/24 07:29:36;;;;;;;6.30;0.30;;;;;;;7.74;100.00;99819.97;5084827;28;20028;-65
2024/02/24 07:32:02;;;;;;;4.03;0.40;;;;;;;7.83;100.00;99816.53;5085614;28;20024;-66
2024/02/24 07:34:28;;;;;;;3.58;0.20;;;;;;;7.79;100.00;99821.19;5085516;28;20035;-66
2024/02/24 07:36:53;;;;;;;6.80;0.40;;;;;;;7.76;100.00;99818.06;5081770;28;20030;-66
2024/02/24 07:39:19;;;;;;;8.48;0.40;;;;;;;7.77;100.00;99819.69;5077972;28;20024;-66
2024/02/24 07:41:45;;;;;;;5.75;0.35;;;;;;;7.74;100.00;99823.38;5080524;28;20031;-66
2024/02/24 07:44:11;;;;;;;8.98;0.30;;;;;;;7.77;100.00;99825.69;5077449;28;20103;-66
2024/02/24 07:46:36;;;;;;;4.65;0.28;;;;;;;7.85;100.00;99827.56;5075379;28;20043;-66
2024/02/24 07:49:03;;;;;;;6.05;0.20;;;;;;;7.87;100.00;99830.84;5085869;28;20017;-66
2024/02/24 07:51:29;;;;;;;7.47;0.50;;;;;;;7.93;100.00;99833.69;5082196;28;20055;-66
2024/02/24 07:53:55;;;;;;;8.50;0.20;;;;;;;7.91;100.00;99848.56;5084867;28;20495;-66
2024/02/24 07:56:22;;;;;;;1.83;0.20;;;;;;;8.04;100.00;99845.63;5086767;28;20052;-66
2024/02/24 07:58:49;;;;;;;7.95;0.55;;;;;;;8.10;100.00;99850.25;5086401;28;20089;-66
2024/02/24 08:01:14;;;;;;;2.10;0.20;;;;;;;8.21;100.00;99841.47;5077035;28;20329;-66
2024/02/24 08:03:39;;;;;;;10.20;0.32;;;;;;;8.25;100.00;99846.22;5085746;28;20028;-66
2024/02/24 08:06:05;;;;;;;4.53;0.22;;;;;;;8.36;100.00;99849.63;5082653;28;20055;-66
2024/02/24 08:08:33;;;;;;;10.88;0.20;;;;;;;8.36;100.00;99853.03;5081903;28;20063;-66
2024/02/24 08:11:00;;;;;;;6.78;0.20;;;;;;;8.36;100.00;99855.63;5088250;28;20072;-66
2024/02/24 08:13:26;;;;;;;10.02;0.60;;;;;;;8.37;100.00;99865.06;5084603;28;20500;-66
2024/02/24 08:15:51;;;;;;;4.03;0.32;;;;;;;8.31;100.00;99861.22;5082187;28;20116;-66
2024/02/24 08:18:17;;;;;;;6.25;0.20;;;;;;;8.36;100.00;99868.63;5081142;28;20117;-66
2024/02/24 08:20:42;;;;;;;5.72;0.22;;;;;;;8.43;100.00;99869.69;5086868;28;20380;-67
2024/02/24 08:23:08;;;;;;;8.15;0.40;;;;;;;8.42;100.00;99872.41;5088498;28;20110;-67
2024/02/24 08:25:33;;;;;;;7.78;0.40;;;;;;;8.45;100.00;99872.94;5086559;28;20037;-67
2024/02/24 08:27:59;;;;;;;7.57;0.30;;;;;;;8.58;100.00;99867.38;5089373;28;20035;-67
2024/02/24 08:30:24;;;;;;;3.17;0.30;;;;;;;8.56;100.00;99864.13;5088628;28;20563;-67
2024/02/24 08:32:51;;;;;;;5.30;0.32;;;;;;;8.65;100.00;99871.84;5088376;28;20036;-66
2024/02/24 08:35:17;;;;;;;6.22;0.20;;;;;;;8.67;100.00;99869.09;5086922;28;20063;-66
2024/02/24 08:37:44;;;;;;;3.40;0.10;;;;;;;8.67;100.00;99876.91;5086803;28;20140;-66
2024/02/24 08:40:11;;;;;;;6.30;0.10;;;;;;;8.76;100.00;99878.63;5089840;28;20032;-66
2024/02/24 08:42:37;;;;;;;12.20;0.38;;;;;;;9.00;100.00;99878.00;5088359;28;20039;-67
2024/02/24 08:45:02;;;;;;;0.88;0.20;;;;;;;9.15;100.00;99883.50;5087096;28;20036;-67
2024/02/24 08:47:28;;;;;;;4.45;0.30;;;;;;;9.29;100.00;99880.41;5085632;28;20089;-67
2024/02/24 08:49:53;;;;;;;3.35;0.10;;;;;;;9.37;100.00;99890.03;5085352;28;20533;-67
2024/02/24 08:52:19;;;;;;;3.22;0.20;;;;;;;9.40;100.00;99885.38;5088747;28;20043;-67
2024/02/24 08:54:44;;;;;;;1.45;0.20;;;;;;;9.45;100.00;99890.13;5085003;28;20140;-67
2024/02/24 08:57:09;;;;;;;6.25;0.35;;;;;;;9.41;100.00;99886.19;5076075;28;20029;-67
2024/02/24 08:59:35;;;;;;;4.50;0.25;;;;;;;9.52;100.00;99889.31;5075978;28;20028;-67
2024/02/24 09:02:00;;;;;;;5.75;0.20;;;;;;;9.35;100.00;99881.59;5083600;28;20039;-67
2024/02/24 09:04:26;;;;;;;2.47;0.25;;;;;;;9.12;100.00;99882.03;5087036;28;20498;-67
2024/02/24 09:06:51;;;;;;;4.60;0.20;;;;;;;9.14;100.00;99887.06;5078570;28;20052;-67
2024/02/24 09:09:17;;;;;;;2.80;0.20;;;;;;;9.20;100.00;99894.28;5076670;28;20033;-67
2024/02/24 09:11:43;;;;;;;10.07;0.28;;;;;;;9.24;100.00;99900.81;5077974;28;20126;-67
2024/02/24 09:14:09;;;;;;;6.55;0.30;;;;;;;9.19;100.00;99897.84;5070506;28;20539;-67
2024/02/24 09:16:35;;;;;;;5.00;0.30;;;;;;;9.15;100.00;99891.31;5074989;28;20029;-67
2024/02/24 09:19:01;;;;;;;1.52;0.10;;;;;;;9.20;100.00;99891.69;5074706;28;20827;-67
2024/02/24 09:21:27;;;;;;;0.98;0.10;;;;;;;9.16;100.00;99900.75;5080579;28;20031;-64
2024/02/24 09:23:53;;;;;;;3.95;0.10;;;;;;;9.27;100.00;99910.91;5084656;28;20039;-64
2024/02/24 09:26:19;;;;;;;3.42;0.10;;;;;;;9.34;100.00;99906.75;5088820;28;20027;-63
2024/02/24 09:28:44;;;;;;;1.80;0.10;;;;;;;9.45;100.00;99911.69;5088321;28;20032;-66
2024/02/24 09:31:10;;;;;;;7.20;0.20;;;;;;;9.30;100.00;99911.44;5076134;28;20017;-66
2024/02/24 09:33:35;;;;;;;5.10;0.10;;;;;;;9.35;100.00;99916.19;5076967;28;20028;-66
2024/02/24 09:36:01;;;;;;;1.35;0.00;;;;;;;9.43;100.00;99910.25;5074431;28;20514;-66
2024/02/24 09:38:26;;;;;;;5.30;0.30;;;;;;;9.47;100.00;99920.16;5078277;28;20060;-66
2024/02/24 09:40:52;;;;;;;2.38;0.28;;;;;;;9.29;100.00;99919.38;5076896;28;20032;-67
2024/02/24 09:43:18;;;;;;;5.05;0.20;;;;;;;9.24;100.00;99921.63;5071443;28;20135;-67
2024/02/24 09:45:46;;;;;;;4.03;0.10;;;;;;;9.24;100.00;99932.00;5069730;28;20039;-67
2024/02/24 09:48:13;;;;;;;2.35;0.10;;;;;;;9.40;100.00;99929.56;5075640;28;20032;-66
2024/02/24 09:50:39;;;;;;;5.20;0.17;;;;;;;9.49;100.00;99935.63;5081969;28;20024;-66
2024/02/24 09:53:04;;;;;;;4.80;0.13;;;;;;;9.55;100.00;99940.22;5084004;28;20361;-66
2024/02/24 09:55:30;;;;;;;5.75;0.10;;;;;;;9.70;100.00;99943.94;5083194;28;20063;-67
2024/02/24 09:57:56;;;;;;;2.35;0.22;;;;;;;9.76;100.00;99951.13;5077254;28;20023;-67
2024/02/24 10:00:23;;;;;;;2.67;0.20;;;;;;;9.95;100.00;99948.31;5074718;28;20124;-67
2024/02/24 10:02:48;;;;;;;5.40;0.17;;;;;;;10.12;100.00;99951.03;5079975;28;20035;-66
2024/02/24 10:05:15;;;;;;;2.95;0.13;;;;;;;10.11;100.00;99957.19;5078715;28;20472;-67
2024/02/24 10:07:41;;;;;;;3.08;0.10;;;;;;;10.14;100.00;99951.69;5078865;28;20501;-67
2024/02/24 10:10:07;;;;;;;0.93;0.17;;;;;;;10.26;100.00;99960.91;5081138;28;20016;-67
2024/02/24 10:12:33;;;;;;;2.35;0.10;;;;;;;10.20;100.00;99962.34;5076554;28;20173;-67
2024/02/24 10:15:00;;;;;;;7.43;0.17;;;;;;;10.07;100.00;99967.09;5077555;28;20040;-67
2024/02/24 10:17:29;;;;;;;4.93;0.20;;;;;;;10.03;100.00;99954.53;5078634;28;20089;-67
2024/02/24 10:19:56;;;;;;;2.25;0.10;;;;;;;10.23;100.00;99956.00;5074887;28;20483;-67
2024/02/24 10:22:21;;;;;;;7.78;0.20;;;;;;;10.39;100.00;99963.91;5078391;28;20063;-67
2024/02/24 10:24:47;;;;;;;8.02;0.40;;;;;;;10.45;100.00;99962.44;5078757;28;20490;-67
2024/02/24 10:27:16;;;;;;;8.38;0.17;;;;;;;10.40;100.00;99956.91;5080350;28;20044;-67
2024/02/24 10:29:41;;;;;;;3.47;0.10;;;;;;;10.35;100.00;99961.78;5073360;28;20116;-67
2024/02/24 10:32:07;;;;;;;2.80;0.10;;;;;;;10.25;100.00;99962.69;5078167;28;20567;-67
2024/02/24 10:34:34;;;;;;;3.08;0.10;;;;;;;10.26;100.00;99955.69;5074216;28;20149;-67
2024/02/24 10:37:00;;;;;;;6.85;0.10;;;;;;;10.35;100.00;99959.16;5075072;28;20108;-67
2024/02/24 10:39:26;;;;;;;2.47;0.10;;;;;;;10.51;100.00;99959.22;5074503;28;20029;-67
2024/02/24 10:41:52;;;;;;;4.38;0.10;;;;;;;10.54;100.00;99958.91;5079042;28;20036;-67
2024/02/24 10:44:20;;;;;;;1.42;0.10;;;;;;;10.61;100.00;99952.91;5075154;28;20384;-67
2024/02/24 10:46:49;;;;;;;2.92;0.30;;;;;;;10.54;100.00;99953.69;5076747;28;20151;-67
2024/02/24 10:49:14;;;;;;;1.90;0.10;;;;;;;10.51;100.00;99954.00;5075788;28;20040;-67
2024/02/24 10:51:45;;;;;;;1.58;0.20;;;;;;;10.59;100.00;99961.88;5079660;28;20036;-67
2024/02/24 10:54:15;;;;;;;3.95;0.20;;;;;;;10.76;100.00;99963.56;5074459;28;20037;-67
2024/02/24 10:56:41;;;;;;;3.60;0.10;;;;;;;10.88;100.00;99964.06;5076302;28;20035;-67
2024/02/24 10:59:07;;;;;;;3.42;0.20;;;;;;;11.01;100.00;99964.44;5076424;28;20032;-67
2024/02/24 11:01:41;;;;;;;3.90;0.20;;;;;;;11.16;100.00;99975.06;5078715;28;20020;-67
2024/02/24 11:04:09;;;;;;;2.83;0.10;;;;;;;11.32;100.00;99975.09;5078101;28;20101;-67
2024/02/24 11:06:44;;;;;;;3.95;0.10;;;;;;;11.48;100.00;99975.09;5075665;28;20511;-67
2024/02/24 11:09:33;;;;;;;0.55;0.00;;;;;;;11.67;100.00;99973.16;5076199;28;20365;-67
2024/02/24 11:12:21;;;;;;;5.53;0.05;;;;;;;11.77;100.00;99973.84;5080174;28;20040;-66
2024/02/24 11:14:47;;;;;;;6.32;0.13;;;;;;;11.92;100.00;99970.38;5077492;28;20060;-66
2024/02/24 11:17:52;;;;;;;2.63;0.20;;;;;;;12.03;100.00;99973.63;5076111;28;20033;-66
2024/02/24 11:20:37;;;;;;;4.22;0.10;;;;;;;12.10;100.00;99975.44;5081433;28;20089;-66
2024/02/24 11:23:22;;;;;;;5.93;0.32;;;;;;;12.15;100.00;99975.75;5080457;28;20051;-66
2024/02/24 11:25:49;;;;;;;3.45;0.00;;;;;;;12.19;100.00;99979.66;5088483;28;20035;-66